Latest Weather Observations for Cooktown

IDQ60801

Issued at 1:35 pm EST Saturday 20 September 2014 (issued every 30 minutes, with the page automatically refreshed every 10 minutes)

About weather observations | Map of weather stations | Latest weather observations for QLD | Other Formats
Station Details ID: 031209 Name: COOKTOWN AIRPORT Lat: -15.45 Lon: 145.19 Height: 4.8 m
Data from the previous 72 hours. | See also: Recent months at Cooktown
Date/Time
EST
Temp
°C
App
Temp
°C
Dew
Point
Rel
Hum
%
Delta-T
°C
Wind Press
QNH
hPa
Press
MSL
hPa
Rain
since 9 am
mm
Dir
 
Spd
km/h
Gust
km/h
Spd
kts
Gust
kts
20/01:30pm 28.8 23.3 10.7 32 10.3 ESE 30 41 16 22 1014.1 - 0.0
20/01:00pm 29.4 26.0 13.7 38 9.4 E 24 35 13 19 1014.3 - 0.0
20/12:30pm 28.4 25.8 13.8 40 8.7 SE 20 32 11 17 1014.9 - 0.0
20/12:00pm 27.8 26.5 15.9 48 7.3 SE 17 26 9 14 1015.2 1015.2 0.0
20/11:30am 27.3 25.8 16.7 52 6.6 SE 20 30 11 16 1015.8 - 0.0
20/11:00am 27.0 25.4 17.4 55 6.0 ESE 22 33 12 18 1016.3 - 0.0
20/10:30am 26.3 24.6 17.3 57 5.6 SE 22 33 12 18 1016.9 - 0.0
20/10:00am 26.0 24.8 17.5 59 5.3 SE 20 32 11 17 1017.3 - 0.0
20/09:30am 25.5 24.7 17.9 63 4.8 SE 19 30 10 16 1017.3 - 0.0
20/09:00am 25.0 23.7 18.2 66 4.3 ESE 22 37 12 20 1017.3 1017.1 0.0
20/08:30am 25.8 25.6 18.6 64 4.6 ESE 17 24 9 13 1017.1 - 0.0
20/08:00am 24.7 25.3 18.5 68 3.9 SE 13 19 7 10 1016.7 - 0.0
20/07:30am 23.5 24.9 18.6 74 3.1 SE 9 17 5 9 1016.5 - 0.0
20/07:00am 22.0 23.9 18.5 80 2.2 SSE 6 9 3 5 1016.0 - 0.0
20/06:30am 21.7 23.3 18.2 80 2.2 SSE 7 13 4 7 1015.4 - 0.0
20/06:00am 21.4 23.1 18.0 81 2.1 SSE 6 11 3 6 1015.0 1014.9 0.0
20/05:30am 21.8 22.8 17.8 78 2.5 SE 9 13 5 7 1014.8 - 0.0
20/05:00am 22.0 22.6 17.8 77 2.6 SE 11 15 6 8 1014.8 - 0.0
20/04:30am 21.7 22.8 18.0 79 2.3 SE 9 13 5 7 1014.6 - 0.0
20/04:00am 21.8 22.9 17.9 78 2.4 SE 9 15 5 8 1014.5 - 0.0
20/03:30am 22.1 22.8 17.9 77 2.6 SE 11 15 6 8 1014.5 - 0.0
20/03:00am 22.3 22.6 17.8 75 2.8 ESE 13 26 7 14 1014.8 1014.8 0.0
20/02:30am 22.7 22.4 17.3 71 3.3 ESE 15 28 8 15 1015.1 - 0.0
20/02:00am 22.4 22.6 17.7 75 2.9 ESE 13 19 7 10 1015.4 - 0.0
20/01:30am 22.8 22.5 17.3 71 3.4 ESE 15 28 8 15 1015.7 - 0.0
20/01:00am 22.9 22.6 17.4 71 3.4 ESE 15 24 8 13 1016.0 - 0.0
20/12:30am 23.0 22.5 17.7 72 3.3 ESE 17 24 9 13 1016.4 - 0.0
20/12:00am 23.0 22.4 17.5 71 3.4 ESE 17 28 9 15 1016.6 1016.6 0.0
 
Date/Time
EST
Temp
°C
App
Temp
°C
Dew
Point
Rel
Hum
%
Delta-T
°C
Wind Press
QNH
hPa
Press
MSL
hPa
Rain
since 9 am
mm
Dir
 
Spd
km/h
Gust
km/h
Spd
kts
Gust
kts
19/11:30pm 22.9 22.1 17.2 70 3.5 ESE 17 28 9 15 1017.0 - 0.0
19/11:00pm 22.9 22.0 17.7 72 3.2 ESE 19 28 10 15 1017.0 - 0.0
19/10:30pm 22.9 23.2 17.9 73 3.1 ESE 13 26 7 14 1017.1 - 0.0
19/10:00pm 22.9 21.9 17.6 72 3.3 ESE 19 24 10 13 1017.1 - 0.0
19/09:30pm 23.3 22.0 17.3 69 3.7 ESE 20 33 11 18 1017.1 - 0.0
19/09:00pm 23.2 23.3 18.3 74 3.1 ESE 15 32 8 17 1017.1 1016.9 0.0
19/08:30pm 23.1 22.7 18.0 73 3.2 ESE 17 26 9 14 1016.7 - 0.0
19/08:00pm 22.9 23.1 18.6 77 2.7 ESE 15 20 8 11 1016.3 - 0.0
19/07:30pm 22.7 23.3 18.6 77 2.6 ESE 13 20 7 11 1016.1 - 0.0
19/07:00pm 23.1 23.3 18.5 75 2.9 ESE 15 24 8 13 1015.7 - 0.0
19/06:30pm 23.2 22.3 18.1 73 3.2 E 20 28 11 15 1015.4 - 0.0
19/06:00pm 23.6 22.3 18.2 71 3.4 ESE 22 30 12 16 1015.0 1014.9 0.0
19/05:30pm 24.2 23.2 18.0 68 3.9 ESE 20 32 11 17 1014.6 - 0.0
19/05:00pm 24.6 23.9 18.3 68 4.0 ESE 19 30 10 16 1014.2 - 0.0
19/04:30pm 25.8 24.7 17.8 61 5.0 ESE 20 37 11 20 1014.1 - 0.0
19/04:00pm 25.6 23.5 17.2 59 5.2 ESE 24 37 13 20 1014.0 - 0.0
19/03:30pm 25.7 24.1 17.4 60 5.2 ESE 22 33 12 18 1014.1 - 0.0
19/03:00pm 26.7 25.5 17.6 57 5.7 SE 20 35 11 19 1014.3 1014.3 0.0
19/02:30pm 26.5 25.3 17.6 58 5.6 ESE 20 30 11 16 1014.8 - 0.0
19/02:00pm 26.8 24.4 17.4 56 5.9 ESE 26 35 14 19 1015.2 - 0.0
19/01:30pm 26.9 23.9 16.9 54 6.2 ESE 28 41 15 22 1015.6 - 0.0
19/01:00pm 27.9 25.4 17.2 52 6.7 ESE 26 39 14 21 1015.8 - 0.0
19/12:30pm 27.1 23.6 16.6 52 6.5 ESE 30 43 16 23 1016.3 - 0.0
19/12:00pm 28.0 25.2 17.3 52 6.7 E 28 39 15 21 1016.6 1016.5 0.0
19/11:30am 27.3 24.3 16.8 52 6.5 ESE 28 43 15 23 1017.1 - 0.0
19/11:00am 27.2 26.0 17.5 55 6.1 ESE 20 37 11 20 1017.4 - 0.0
19/10:30am 26.3 25.4 17.7 59 5.4 SE 19 30 10 16 1017.8 - 0.0
19/10:00am 26.0 24.9 17.7 60 5.2 ESE 20 32 11 17 1018.0 - 0.0
19/09:30am 25.3 24.3 18.0 64 4.6 SE 20 35 11 19 1018.0 - 0.0
19/09:00am 25.0 24.1 18.2 66 4.3 SE 20 30 11 16 1017.9 1017.7 0.0
19/08:31am 23.7 24.1 19.0 75 3.0 SE 15 22 8 12 1017.7 - 0.0
19/08:30am 23.6 23.9 18.7 74 3.1 SE 15 22 8 12 1017.7 - 0.0
19/08:00am 20.0 21.4 17.9 88 1.3 WSW 7 9 4 5 1017.4 - 0.0
19/07:30am 16.7 17.3 15.8 94 0.5 WNW 7 11 4 6 1017.2 - 0.0
19/07:00am 15.2 14.9 14.5 96 0.4 WNW 9 11 5 6 1016.8 - 0.0
19/06:30am 13.7 13.5 13.0 96 0.4 WNW 6 9 3 5 1016.4 - 0.0
19/06:08am 13.3 13.0 12.7 96 0.3 WNW 6 9 3 5 1016.0 - 0.0
19/06:00am 13.2 13.3 12.6 96 0.3 WNW 4 6 2 3 1015.9 1015.7 0.0
19/05:48am 13.3 13.0 12.7 96 0.3 WNW 6 7 3 4 1015.7 - 0.0
19/05:30am 14.0 14.0 13.6 97 0.2 WNW 6 9 3 5 1015.3 - 0.0
19/05:29am 14.1 14.1 13.6 97 0.3 WNW 6 9 3 5 1015.3 - 0.0
19/05:00am 13.6 13.8 13.1 97 0.3 WNW 4 6 2 3 1015.0 - 0.0
19/04:30am 13.9 13.8 13.4 97 0.3 WNW 6 7 3 4 1014.7 - 0.0
19/04:00am 13.9 13.8 13.2 96 0.4 WNW 6 7 3 4 1014.5 - 0.0
19/03:30am 14.2 14.2 13.5 96 0.4 WNW 6 7 3 4 1014.6 - 0.0
19/03:00am 15.0 15.3 14.5 97 0.3 WNW 6 6 3 3 1014.8 1014.7 0.0
19/02:30am 14.6 15.8 13.9 96 0.4 CALM 0 0 0 0 1014.9 - 0.0
19/02:00am 14.9 15.1 14.2 96 0.4 W 6 7 3 4 1015.1 - 0.0
19/01:30am 15.0 15.5 14.1 94 0.5 W 4 6 2 3 1015.4 - 0.0
19/01:00am 15.3 15.6 14.6 96 0.4 WNW 6 9 3 5 1015.7 - 0.0
19/12:30am 15.6 16.7 14.7 94 0.5 WNW 2 7 1 4 1015.9 - 0.0
19/12:00am 16.3 16.7 15.4 94 0.5 WNW 7 9 4 5 1016.4 1016.3 0.0
 
Date/Time
EST
Temp
°C
App
Temp
°C
Dew
Point
Rel
Hum
%
Delta-T
°C
Wind Press
QNH
hPa
Press
MSL
hPa
Rain
since 9 am
mm
Dir
 
Spd
km/h
Gust
km/h
Spd
kts
Gust
kts
18/11:30pm 16.9 18.6 16.1 95 0.5 WNW 2 7 1 4 1016.5 - 0.0
18/11:00pm 16.8 18.3 15.8 94 0.6 W 2 7 1 4 1016.8 - 0.0
18/10:30pm 17.3 19.0 16.3 94 0.6 WNW 2 7 1 4 1016.9 - 0.0
18/10:00pm 17.9 20.3 16.9 94 0.6 CALM 0 0 0 0 1016.7 - 0.0
18/09:30pm 18.0 20.2 16.5 91 0.9 CALM 0 0 0 0 1016.6 - 0.0
18/09:00pm 17.9 20.1 16.4 91 0.9 CALM 0 0 0 0 1016.4 1016.3 0.0
18/08:30pm 19.5 22.1 17.5 88 1.2 CALM 0 0 0 0 1016.1 - 0.0
18/08:00pm 20.9 22.4 17.7 82 2.0 SE 6 7 3 4 1015.7 - 0.0
18/07:30pm 21.4 22.9 17.5 78 2.4 SE 6 9 3 5 1015.5 - 0.0
18/07:00pm 20.9 21.7 17.3 80 2.2 E 9 11 5 6 1015.2 - 0.0
18/06:30pm 21.0 21.3 16.9 77 2.5 E 11 19 6 10 1015.0 - 0.0
18/06:00pm 22.8 22.9 16.4 67 3.9 ESE 11 13 6 7 1015.0 1014.9 0.0
18/05:30pm 24.4 23.1 15.8 58 5.2 E 17 22 9 12 1015.0 - 0.0
18/05:00pm 25.2 23.7 16.2 57 5.5 E 19 22 10 12 1014.7 - 0.0
18/04:30pm 25.9 24.1 15.5 52 6.3 E 19 26 10 14 1014.6 - 0.0
18/04:00pm 26.4 23.8 14.9 49 6.9 E 22 26 12 14 1014.6 - 0.0
18/03:30pm 27.3 25.6 15.7 49 7.1 E 19 24 10 13 1014.5 - 0.0
18/03:00pm 26.8 24.7 15.2 49 7.0 E 20 28 11 15 1014.8 1014.8 0.0
18/02:30pm 26.6 24.5 17.1 56 5.9 E 24 33 13 18 1015.1 - 0.0
18/02:00pm 26.6 24.3 15.8 51 6.6 E 22 33 12 18 1015.5 - 0.0
18/01:30pm 27.6 25.3 15.7 48 7.3 E 22 30 12 16 1015.8 - 0.0
18/01:00pm 27.6 24.0 14.2 43 8.0 E 26 33 14 18 1016.1 - 0.0
18/12:30pm 27.1 24.6 17.0 54 6.3 E 26 33 14 18 1016.7 - 0.0
18/12:00pm 26.8 23.8 14.8 47 7.2 E 24 30 13 16 1017.1 1017.0 0.0
18/11:30am 27.4 25.4 15.6 48 7.2 ESE 20 30 11 16 1017.4 - 0.0
18/11:00am 26.9 24.4 13.5 43 7.9 ESE 19 30 10 16 1017.9 - 0.0
18/10:30am 26.4 24.1 15.7 51 6.5 ESE 22 32 12 17 1018.1 - 0.0
18/10:00am 26.0 24.1 16.6 56 5.8 E 22 30 12 16 1018.1 - 0.0
18/09:30am 25.2 24.0 17.1 60 5.0 ESE 19 28 10 15 1018.1 - 0.0
18/09:00am 24.7 24.4 17.3 63 4.6 SE 15 26 8 14 1017.8 1017.7 0.0
18/08:30am 23.7 24.3 17.8 69 3.7 SSE 11 19 6 10 1017.6 - 0.0
18/08:00am 21.6 23.0 17.9 79 2.3 S 7 11 4 6 1017.3 - 0.0
18/07:30am 19.0 21.2 17.4 90 1.0 W 2 7 1 4 1017.1 - 0.0
18/07:00am 16.6 17.3 15.7 94 0.5 WNW 6 7 3 4 1016.7 - 0.0
18/06:30am 15.6 17.2 14.9 96 0.4 CALM 0 0 0 0 1016.3 - 0.0
18/06:00am 15.7 17.3 15.0 96 0.4 CALM 0 0 0 0 1015.9 1015.8 0.0
18/05:30am 16.2 16.8 15.3 94 0.5 WNW 6 7 3 4 1015.7 - 0.0
18/05:00am 16.3 16.9 15.3 94 0.6 W 6 7 3 4 1015.3 - 0.0
18/04:30am 16.5 18.3 15.6 94 0.5 CALM 0 0 0 0 1015.1 - 0.0
18/04:00am 16.9 18.9 15.9 94 0.6 CALM 0 0 0 0 1015.1 - 0.0
18/03:30am 17.2 18.9 16.2 94 0.6 SSW 2 6 1 3 1015.0 - 0.0
18/03:00am 17.9 19.3 16.4 91 0.9 SSW 4 7 2 4 1015.2 1015.1 0.0
18/02:30am 20.2 21.3 17.2 83 1.8 S 7 9 4 5 1015.2 - 0.0
18/02:00am 21.5 21.8 17.1 76 2.7 SE 11 15 6 8 1015.4 - 0.0
18/01:30am 21.5 21.9 17.3 77 2.6 ESE 11 19 6 10 1015.8 - 0.0
18/01:00am 21.6 22.0 17.2 76 2.7 SE 11 17 6 9 1015.9 - 0.0
18/12:30am 21.9 21.5 17.2 74 2.9 ESE 15 20 8 11 1016.2 - 0.0
18/12:00am 22.0 21.6 17.1 74 3.0 ESE 15 22 8 12 1016.6 1016.6 0.0
 
Date/Time
EST
Temp
°C
App
Temp
°C
Dew
Point
Rel
Hum
%
Delta-T
°C
Wind Press
QNH
hPa
Press
MSL
hPa
Rain
since 9 am
mm
Dir
 
Spd
km/h
Gust
km/h
Spd
kts
Gust
kts
17/11:30pm 21.7 21.6 16.9 74 2.9 ESE 13 19 7 10 1016.6 - 0.0
17/11:00pm 21.9 22.1 16.8 73 3.1 ESE 11 17 6 9 1016.7 - 0.0
17/10:30pm 21.6 22.2 16.7 73 3.0 ESE 9 17 5 9 1016.7 - 0.0
17/10:00pm 22.0 22.1 16.4 70 3.4 ESE 11 15 6 8 1016.8 - 0.0
17/09:30pm 22.2 21.4 16.2 69 3.6 ESE 15 22 8 12 1016.7 - 0.0
17/09:00pm 22.2 21.0 16.1 68 3.7 ESE 17 22 9 12 1016.4 1016.2 0.0
17/08:30pm 22.4 21.6 16.1 67 3.8 ESE 15 24 8 13 1016.0 - 0.0
17/08:00pm 22.0 20.7 15.8 68 3.7 ESE 17 26 9 14 1015.8 - 0.0
17/07:30pm 22.2 20.5 15.7 66 3.9 ESE 19 28 10 15 1015.4 - 0.0
17/07:00pm 22.3 20.9 15.6 66 4.0 ESE 17 24 9 13 1015.0 - 0.0
17/06:30pm 22.4 21.6 16.1 67 3.8 ESE 15 20 8 11 1014.8 - 0.0
17/06:00pm 23.0 22.7 16.4 66 4.0 ESE 13 22 7 12 1014.5 1014.4 0.0
17/05:30pm 24.1 21.7 15.3 58 5.3 ESE 22 32 12 17 1014.3 - 0.0
17/05:00pm 24.6 21.7 16.1 59 5.2 E 26 35 14 19 1014.2 - 0.0
17/04:30pm 25.2 23.0 16.0 56 5.6 ESE 22 32 12 17 1014.1 - 0.0
17/04:00pm 25.9 22.8 15.5 52 6.3 E 26 32 14 17 1014.0 - 0.0
17/03:30pm 26.0 24.3 16.2 54 6.0 ESE 20 30 11 16 1014.1 - 0.0
17/03:00pm 26.1 24.2 15.8 53 6.3 SE 20 33 11 18 1014.1 1013.9 0.0
17/02:30pm 27.0 24.4 13.9 44 7.8 ESE 20 30 11 16 1014.4 - 0.0
17/02:00pm 26.9 23.0 13.3 43 8.0 ESE 26 35 14 19 1014.5 - 0.0

Other Formats:

Comma delimited format used in spreadsheet applications
http://www.bom.gov.au/fwo/IDQ60801/IDQ60801.95283.axf

JavaScript Object Notation format (JSON) in row-major order
http://www.bom.gov.au/fwo/IDQ60801/IDQ60801.95283.json